createdAt,value
2023-04-23T00:00:54.924Z,99920.00
2023-04-23T00:03:25.250Z,99929.00
2023-04-23T00:05:54.465Z,99920.00
2023-04-23T00:08:23.550Z,99916.00
2023-04-23T00:10:51.840Z,99922.00
2023-04-23T00:13:20.050Z,99917.00
2023-04-23T00:15:48.300Z,99914.00
2023-04-23T00:18:17.001Z,99916.00
2023-04-23T00:20:46.280Z,99911.00
2023-04-23T00:23:14.029Z,99910.00
2023-04-23T00:25:41.831Z,99909.00
2023-04-23T00:28:09.606Z,99897.00
2023-04-23T00:30:37.341Z,99901.00
2023-04-23T00:33:05.375Z,99893.00
2023-04-23T00:35:33.103Z,99904.00
2023-04-23T00:38:02.188Z,99901.00
2023-04-23T00:40:30.010Z,99895.00
2023-04-23T00:42:58.846Z,99903.00
2023-04-23T00:45:26.833Z,99886.00
2023-04-23T00:47:55.209Z,99894.00
2023-04-23T00:50:23.058Z,99889.00
2023-04-23T00:52:50.828Z,99890.00
2023-04-23T00:55:21.355Z,99896.00
2023-04-23T00:57:49.986Z,99892.00
2023-04-23T01:00:18.877Z,99889.00
2023-04-23T01:02:48.881Z,99896.00
2023-04-23T01:05:18.646Z,99892.00
2023-04-23T01:07:47.997Z,99885.00
2023-04-23T01:10:15.866Z,99885.00
2023-04-23T01:12:45.126Z,99888.00
2023-04-23T01:15:13.057Z,99883.00
2023-04-23T01:17:41.247Z,99880.00
2023-04-23T01:20:10.381Z,99893.00
2023-04-23T01:22:39.897Z,99879.00
2023-04-23T01:25:10.260Z,99881.00
2023-04-23T01:27:38.746Z,99874.00
2023-04-23T01:30:07.998Z,99874.00
2023-04-23T01:32:36.118Z,99886.00
2023-04-23T01:35:04.642Z,99875.00
2023-04-23T01:37:33.188Z,99888.00
2023-04-23T01:40:02.497Z,99881.00
2023-04-23T01:42:30.341Z,99883.00
2023-04-23T01:44:59.198Z,99892.00
2023-04-23T01:47:27.565Z,99908.00
2023-04-23T01:49:55.728Z,99894.00
2023-04-23T01:52:23.433Z,99902.00
2023-04-23T01:54:51.736Z,99905.00
2023-04-23T01:57:24.152Z,99904.00
2023-04-23T01:59:52.030Z,99902.00
2023-04-23T02:02:21.035Z,99909.00
2023-04-23T02:04:49.283Z,99914.00
2023-04-23T02:07:17.097Z,99920.00
2023-04-23T02:09:44.868Z,99908.00
2023-04-23T02:12:12.625Z,99915.00
2023-04-23T02:14:42.113Z,99911.00
2023-04-23T02:17:10.043Z,99895.00
2023-04-23T02:19:37.766Z,99909.00
2023-04-23T02:22:05.771Z,99919.00
2023-04-23T02:24:34.733Z,99901.00
2023-04-23T02:27:03.440Z,99921.00
2023-04-23T02:29:31.392Z,99913.00
2023-04-23T02:32:00.655Z,99926.00
2023-04-23T02:34:28.419Z,99920.00
2023-04-23T02:36:56.289Z,99928.00
2023-04-23T02:39:23.996Z,99929.00
2023-04-23T02:41:51.916Z,99910.00
2023-04-23T02:44:19.670Z,99931.00
2023-04-23T02:46:47.447Z,99933.00
2023-04-23T02:49:16.832Z,99926.00
2023-04-23T02:51:44.792Z,99929.00
2023-04-23T02:54:12.664Z,99927.00
2023-04-23T02:56:40.474Z,99933.00
2023-04-23T02:59:08.596Z,99929.00
2023-04-23T03:01:36.435Z,99938.00
2023-04-23T03:04:05.011Z,99932.00
2023-04-23T03:06:35.715Z,99929.00
2023-04-23T03:09:03.972Z,99923.00
2023-04-23T03:11:31.785Z,99923.00
2023-04-23T03:13:59.534Z,99931.00
2023-04-23T03:16:28.996Z,99932.00
2023-04-23T03:18:57.103Z,99942.00
2023-04-23T03:21:24.832Z,99935.00
2023-04-23T03:23:54.007Z,99942.00
2023-04-23T03:26:21.741Z,99939.00
2023-04-23T03:28:49.411Z,99938.00
2023-04-23T03:31:17.218Z,99938.00
2023-04-23T03:33:45.013Z,99932.00
2023-04-23T03:36:12.830Z,99937.00
2023-04-23T03:38:40.618Z,99939.00
2023-04-23T03:41:09.799Z,99942.00
2023-04-23T03:43:37.507Z,99949.00
2023-04-23T03:46:05.689Z,99946.00
2023-04-23T03:48:33.563Z,99946.00
2023-04-23T03:51:01.511Z,99941.00
2023-04-23T03:53:29.266Z,99949.00
2023-04-23T03:55:57.001Z,99952.00
2023-04-23T03:58:26.142Z,99948.00
2023-04-23T04:00:54.408Z,99938.00
2023-04-23T04:03:22.321Z,99948.00
2023-04-23T04:05:50.256Z,99955.00
2023-04-23T04:08:18.152Z,99956.00
2023-04-23T04:10:46.067Z,99955.00
2023-04-23T04:13:15.959Z,99952.00
2023-04-23T04:15:45.091Z,99953.00
2023-04-23T04:18:12.826Z,99963.00
2023-04-23T04:20:43.587Z,99962.00
2023-04-23T04:23:11.352Z,99962.00
2023-04-23T04:25:40.288Z,99967.00
2023-04-23T04:28:09.361Z,99969.00
2023-04-23T04:30:38.235Z,99968.00
2023-04-23T04:33:07.355Z,99972.00
2023-04-23T04:35:35.053Z,99971.00
2023-04-23T04:38:03.223Z,99982.00
2023-04-23T04:40:31.527Z,99980.00
2023-04-23T04:43:00.104Z,99978.00
2023-04-23T04:45:27.952Z,99986.00
2023-04-23T04:47:55.859Z,99988.00
2023-04-23T04:50:25.478Z,99986.00
2023-04-23T04:52:53.243Z,99985.00
2023-04-23T04:55:21.024Z,99998.00
2023-04-23T04:57:48.732Z,99985.00
2023-04-23T05:00:25.473Z,100003.00
2023-04-23T05:02:53.486Z,99989.00
2023-04-23T05:05:23.409Z,100016.00
2023-04-23T05:07:54.210Z,100006.00
2023-04-23T05:10:22.230Z,100009.00
2023-04-23T05:12:51.762Z,100020.00
2023-04-23T05:15:19.552Z,100016.00
2023-04-23T05:17:47.306Z,100017.00
2023-04-23T05:20:15.270Z,100009.00
2023-04-23T05:22:43.621Z,100015.00
2023-04-23T05:25:13.095Z,100010.00
2023-04-23T05:27:41.464Z,100007.00
2023-04-23T05:30:10.907Z,100024.00
2023-04-23T05:32:39.307Z,100016.00
2023-04-23T05:35:08.074Z,100019.00
2023-04-23T05:37:36.019Z,100022.00
2023-04-23T05:40:05.313Z,100022.00
2023-04-23T05:42:35.706Z,100028.00
2023-04-23T05:45:03.627Z,100026.00
2023-04-23T05:47:31.439Z,100022.00
2023-04-23T05:49:59.269Z,100013.00
2023-04-23T05:52:27.009Z,100018.00
2023-04-23T05:54:54.807Z,100014.00
2023-04-23T05:57:22.858Z,100020.00
2023-04-23T05:59:51.975Z,100027.00
2023-04-23T06:02:21.343Z,100039.00
2023-04-23T06:04:50.450Z,100035.00
2023-04-23T06:07:18.289Z,100036.00
2023-04-23T06:09:45.999Z,100048.00
2023-04-23T06:12:13.706Z,100044.00
2023-04-23T06:14:41.736Z,100043.00
2023-04-23T06:17:11.166Z,100051.00
2023-04-23T06:19:38.946Z,100049.00
2023-04-23T06:22:07.216Z,100047.00
2023-04-23T06:24:35.014Z,100045.00
2023-04-23T06:27:03.005Z,100045.00
2023-04-23T06:29:30.834Z,100043.00
2023-04-23T06:32:02.568Z,100046.00
2023-04-23T06:34:31.696Z,100034.00
2023-04-23T06:36:59.565Z,100035.00
2023-04-23T06:39:27.274Z,100037.00
2023-04-23T06:41:55.073Z,100043.00
2023-04-23T06:44:22.929Z,100031.00
2023-04-23T06:46:50.629Z,100034.00
2023-04-23T06:49:18.904Z,100029.00
2023-04-23T06:51:48.246Z,100027.00
2023-04-23T06:54:16.010Z,100034.00
2023-04-23T06:56:43.744Z,100030.00
2023-04-23T06:59:13.899Z,100023.00
2023-04-23T07:01:41.666Z,100033.00
2023-04-23T07:04:09.558Z,100018.00
2023-04-23T07:06:37.504Z,100042.00
2023-04-23T07:09:07.197Z,100023.00
2023-04-23T07:11:36.621Z,100025.00
2023-04-23T07:14:04.898Z,100035.00
2023-04-23T07:16:33.949Z,100023.00
2023-04-23T07:19:02.431Z,100025.00
2023-04-23T07:21:30.742Z,100025.00
2023-04-23T07:23:59.663Z,100020.00
2023-04-23T07:26:29.009Z,100020.00
2023-04-23T07:28:57.010Z,100020.00
2023-04-23T07:31:24.841Z,100005.00
2023-04-23T07:33:52.605Z,100012.00
2023-04-23T07:36:21.000Z,100019.00
2023-04-23T07:38:49.053Z,99999.00
2023-04-23T07:41:16.865Z,100016.00
2023-04-23T07:43:46.189Z,100007.00
2023-04-23T07:46:13.972Z,100012.00
2023-04-23T07:48:41.724Z,100003.00
2023-04-23T07:51:09.994Z,100015.00
2023-04-23T07:53:37.805Z,100024.00
2023-04-23T07:56:05.619Z,100005.00
2023-04-23T07:58:34.988Z,100003.00
2023-04-23T08:01:04.500Z,100008.00
2023-04-23T08:03:32.440Z,100004.00
2023-04-23T08:06:00.351Z,99997.00
2023-04-23T08:08:28.278Z,99979.00
2023-04-23T08:10:56.181Z,99987.00
2023-04-23T08:13:23.945Z,99985.00
2023-04-23T08:15:52.084Z,99967.00
2023-04-23T08:18:21.346Z,99981.00
2023-04-23T08:20:49.918Z,99983.00
2023-04-23T08:23:18.139Z,99970.00
2023-04-23T08:25:46.469Z,99977.00
2023-04-23T08:28:14.290Z,99980.00
2023-04-23T08:30:42.019Z,99997.00
2023-04-23T08:33:09.852Z,99985.00
2023-04-23T08:35:39.163Z,99984.00
2023-04-23T08:38:06.996Z,99998.00
2023-04-23T08:40:38.428Z,99985.00
2023-04-23T08:43:14.188Z,99985.00
2023-04-23T08:45:42.542Z,99985.00
2023-04-23T08:48:11.889Z,99981.00
2023-04-23T08:50:44.056Z,99991.00
2023-04-23T08:53:12.605Z,99990.00
2023-04-23T08:55:41.992Z,99993.00
2023-04-23T08:58:09.978Z,100002.00
2023-04-23T09:00:39.108Z,99996.00
2023-04-23T09:03:07.479Z,99991.00
2023-04-23T09:05:35.426Z,99977.00
2023-04-23T09:08:04.550Z,99974.00
2023-04-23T09:10:32.682Z,99980.00
2023-04-23T09:13:00.667Z,99981.00
2023-04-23T09:15:28.362Z,99966.00
2023-04-23T09:17:57.407Z,99959.00
2023-04-23T09:20:25.728Z,99962.00
2023-04-23T09:22:53.776Z,99958.00
2023-04-23T09:25:25.060Z,99959.00
2023-04-23T09:27:53.987Z,99946.00
2023-04-23T09:30:23.362Z,99965.00
2023-04-23T09:32:56.988Z,99952.00
2023-04-23T09:35:29.099Z,99951.00
2023-04-23T09:37:56.965Z,99949.00
2023-04-23T09:40:28.347Z,99941.00
2023-04-23T09:42:56.263Z,99947.00
2023-04-23T09:45:25.685Z,99948.00
2023-04-23T09:47:54.804Z,99951.00
2023-04-23T09:50:33.911Z,99926.00
2023-04-23T09:53:01.821Z,99950.00
2023-04-23T09:55:35.538Z,99941.00
2023-04-23T09:58:04.974Z,99945.00
2023-04-23T10:00:37.505Z,99942.00
2023-04-23T10:03:06.859Z,99940.00
2023-04-23T10:08:11.404Z,99952.00
2023-04-23T10:13:12.966Z,99940.00
2023-04-23T10:15:40.776Z,99939.00
2023-04-23T10:18:09.167Z,99933.00
2023-04-23T10:20:37.796Z,99928.00
2023-04-23T10:23:07.199Z,99926.00
2023-04-23T10:25:36.120Z,99918.00
2023-04-23T10:28:08.249Z,99921.00
2023-04-23T10:30:37.357Z,99928.00
2023-04-23T10:33:13.112Z,99921.00
2023-04-23T10:35:48.748Z,99919.00
2023-04-23T10:38:17.247Z,99925.00
2023-04-23T10:40:47.717Z,99925.00
2023-04-23T10:43:17.261Z,99922.00
2023-04-23T10:45:44.962Z,99916.00
2023-04-23T10:48:12.698Z,99910.00
2023-04-23T10:50:57.627Z,99917.00
2023-04-23T10:53:32.917Z,99914.00
2023-04-23T10:56:07.868Z,99930.00
2023-04-23T10:58:51.997Z,99903.00
2023-04-23T11:01:20.705Z,99917.00
2023-04-23T11:03:48.900Z,99906.00
2023-04-23T11:06:41.854Z,99909.00
2023-04-23T11:09:31.486Z,99903.00
2023-04-23T11:12:00.006Z,99905.00
2023-04-23T11:14:46.908Z,99906.00
2023-04-23T11:17:15.957Z,99912.00
2023-04-23T11:20:10.997Z,99904.00
2023-04-23T11:22:40.583Z,99901.00
2023-04-23T11:25:11.184Z,99903.00
2023-04-23T11:27:41.202Z,99908.00
2023-04-23T11:30:15.170Z,99900.00
2023-04-23T11:32:45.306Z,99883.00
2023-04-23T11:35:14.951Z,99886.00
2023-04-23T11:37:43.822Z,99884.00
2023-04-23T11:40:19.765Z,99879.00
2023-04-23T11:42:49.269Z,99877.00
2023-04-23T11:45:19.384Z,99871.00
2023-04-23T11:47:47.801Z,99871.00
2023-04-23T11:50:19.442Z,99868.00
2023-04-23T11:52:47.306Z,99872.00
2023-04-23T11:55:15.664Z,99860.00
2023-04-23T11:57:44.414Z,99867.00
2023-04-23T12:00:19.061Z,99869.00
2023-04-23T12:02:54.654Z,99869.00
2023-04-23T12:05:23.436Z,99860.00
2023-04-23T12:07:52.897Z,99861.00
2023-04-23T12:10:21.737Z,99855.00
2023-04-23T12:12:53.420Z,99854.00
2023-04-23T12:15:22.731Z,99850.00
2023-04-23T12:17:52.108Z,99849.00
2023-04-23T12:20:21.146Z,99855.00
2023-04-23T12:22:49.491Z,99860.00
2023-04-23T12:25:17.187Z,99861.00
2023-04-23T12:27:46.019Z,99846.00
2023-04-23T12:30:14.601Z,99851.00
2023-04-23T12:32:44.815Z,99845.00
2023-04-23T12:35:12.628Z,99839.00
2023-04-23T12:37:40.326Z,99851.00
2023-04-23T12:40:09.150Z,99854.00
2023-04-23T12:42:37.676Z,99846.00
2023-04-23T12:45:10.819Z,99843.00
2023-04-23T12:47:38.698Z,99840.00
2023-04-23T12:50:09.035Z,99834.00
2023-04-23T12:52:38.210Z,99829.00
2023-04-23T12:55:06.726Z,99828.00
2023-04-23T12:57:34.463Z,99830.00
2023-04-23T13:00:03.040Z,99839.00
2023-04-23T13:02:30.978Z,99839.00
2023-04-23T13:05:01.020Z,99857.00
2023-04-23T13:07:30.595Z,99844.00
2023-04-23T13:09:59.565Z,99839.00
2023-04-23T13:12:27.619Z,99837.00
2023-04-23T13:14:55.381Z,99828.00
2023-04-23T13:17:23.297Z,99829.00
2023-04-23T13:19:51.310Z,99829.00
2023-04-23T13:22:19.041Z,99808.00
2023-04-23T13:24:48.114Z,99811.00
2023-04-23T13:27:15.980Z,99808.00
2023-04-23T13:29:43.931Z,99793.00
2023-04-23T13:32:11.876Z,99799.00
2023-04-23T13:34:39.809Z,99798.00
2023-04-23T13:37:09.248Z,99795.00
2023-04-23T13:39:39.963Z,99800.00
2023-04-23T13:42:10.585Z,99800.00
2023-04-23T13:44:38.491Z,99795.00
2023-04-23T13:47:06.416Z,99828.00
2023-04-23T13:49:34.190Z,99810.00
2023-04-23T13:52:06.355Z,99841.00
2023-04-23T13:54:35.470Z,99827.00
2023-04-23T13:57:03.354Z,99834.00
2023-04-23T13:59:32.420Z,99824.00
2023-04-23T14:02:00.113Z,99809.00
2023-04-23T14:04:28.086Z,99813.00
2023-04-23T14:06:55.846Z,99823.00
2023-04-23T14:09:23.587Z,99829.00
2023-04-23T14:11:51.392Z,99832.00
2023-04-23T14:14:19.252Z,99827.00
2023-04-23T14:16:48.326Z,99833.00
2023-04-23T14:19:16.125Z,99846.00
2023-04-23T14:21:44.206Z,99840.00
2023-04-23T14:24:23.116Z,99845.00
2023-04-23T14:26:52.539Z,99851.00
2023-04-23T14:29:33.058Z,99848.00
2023-04-23T14:32:02.269Z,99834.00
2023-04-23T14:34:30.215Z,99829.00
2023-04-23T14:36:58.074Z,99811.00
2023-04-23T14:39:26.861Z,99804.00
2023-04-23T14:41:54.613Z,99789.00
2023-04-23T14:44:23.384Z,99782.00
2023-04-23T14:46:51.470Z,99767.00
2023-04-23T14:49:20.907Z,99754.00
2023-04-23T14:51:50.006Z,99758.00
2023-04-23T14:54:17.809Z,99747.00
2023-04-23T14:56:45.942Z,99742.00
2023-04-23T14:59:13.947Z,99745.00
2023-04-23T15:01:41.830Z,99736.00
2023-04-23T15:04:11.640Z,99734.00
2023-04-23T15:06:41.431Z,99739.00
2023-04-23T15:09:09.206Z,99730.00
2023-04-23T15:11:38.657Z,99728.00
2023-04-23T15:14:09.310Z,99722.00
2023-04-23T15:19:14.281Z,99728.00
2023-04-23T15:21:43.406Z,99719.00
2023-04-23T15:24:12.036Z,99712.00
2023-04-23T15:26:40.024Z,99720.00
2023-04-23T15:29:08.771Z,99712.00
2023-04-23T15:31:37.086Z,99709.00
2023-04-23T15:34:07.083Z,99700.00
2023-04-23T15:36:35.420Z,99700.00
2023-04-23T15:39:05.009Z,99696.00
2023-04-23T15:41:32.784Z,99693.00
2023-04-23T15:44:01.062Z,99686.00
2023-04-23T15:46:28.730Z,99683.00
2023-04-23T15:48:56.471Z,99680.00
2023-04-23T15:51:24.220Z,99677.00
2023-04-23T15:53:51.956Z,99697.00
2023-04-23T15:56:21.029Z,99680.00
2023-04-23T15:58:49.972Z,99682.00
2023-04-23T16:01:18.145Z,99678.00
2023-04-23T16:03:53.768Z,99672.00
2023-04-23T16:06:33.631Z,99671.00
2023-04-23T16:09:02.278Z,99678.00
2023-04-23T16:11:31.452Z,99673.00
2023-04-23T16:13:59.181Z,99669.00
2023-04-23T16:16:26.956Z,99672.00
2023-04-23T16:18:56.358Z,99670.00
2023-04-23T16:21:25.575Z,99665.00
2023-04-23T16:23:53.396Z,99661.00
2023-04-23T16:26:21.278Z,99658.00
2023-04-23T16:28:52.088Z,99649.00
2023-04-23T16:31:28.810Z,99654.00
2023-04-23T16:33:56.802Z,99647.00
2023-04-23T16:36:24.580Z,99652.00
2023-04-23T16:38:52.393Z,99647.00
2023-04-23T16:41:20.161Z,99647.00
2023-04-23T16:43:48.300Z,99647.00
2023-04-23T16:46:17.691Z,99641.00
2023-04-23T16:48:46.135Z,99620.00
2023-04-23T16:51:14.150Z,99633.00
2023-04-23T16:53:42.050Z,99628.00
2023-04-23T16:56:09.895Z,99619.00
2023-04-23T16:58:37.937Z,99621.00
2023-04-23T17:01:05.767Z,99624.00
2023-04-23T17:03:36.521Z,99617.00
2023-04-23T17:06:12.882Z,99617.00
2023-04-23T17:08:42.042Z,99610.00
2023-04-23T17:11:09.815Z,99609.00
2023-04-23T17:13:37.756Z,99605.00
2023-04-23T17:16:05.577Z,99600.00
2023-04-23T17:18:34.760Z,99605.00
2023-04-23T17:21:02.690Z,99603.00
2023-04-23T17:23:30.453Z,99597.00
2023-04-23T17:25:58.217Z,99587.00
2023-04-23T17:28:26.054Z,99589.00
2023-04-23T17:30:55.860Z,99586.00
2023-04-23T17:33:24.073Z,99581.00
2023-04-23T17:35:55.281Z,99578.00
2023-04-23T17:38:24.683Z,99577.00
2023-04-23T17:40:53.493Z,99566.00
2023-04-23T17:43:22.148Z,99572.00
2023-04-23T17:45:50.018Z,99564.00
2023-04-23T17:48:17.963Z,99576.00
2023-04-23T17:50:46.985Z,99564.00
2023-04-23T17:53:16.342Z,99567.00
2023-04-23T17:55:44.472Z,99568.00
2023-04-23T17:58:12.188Z,99564.00
2023-04-23T18:00:43.166Z,99562.00
2023-04-23T18:03:17.195Z,99561.00
2023-04-23T18:05:45.989Z,99552.00
2023-04-23T18:08:16.278Z,99545.00
2023-04-23T18:10:46.954Z,99536.00
2023-04-23T18:13:15.052Z,99544.00
2023-04-23T18:15:43.443Z,99540.00
2023-04-23T18:18:11.453Z,99546.00
2023-04-23T18:20:41.236Z,99541.00
2023-04-23T18:23:09.652Z,99543.00
2023-04-23T18:25:37.825Z,99540.00
2023-04-23T18:28:07.162Z,99540.00
2023-04-23T18:30:35.177Z,99537.00
2023-04-23T18:33:09.591Z,99539.00
2023-04-23T18:35:37.613Z,99529.00
2023-04-23T18:38:07.734Z,99536.00
2023-04-23T18:40:35.598Z,99527.00
2023-04-23T18:43:03.367Z,99512.00
2023-04-23T18:45:32.517Z,99525.00
2023-04-23T18:48:31.482Z,99518.00
2023-04-23T18:50:59.573Z,99516.00
2023-04-23T18:53:27.387Z,99509.00
2023-04-23T18:55:55.119Z,99515.00
2023-04-23T18:58:22.892Z,99510.00
2023-04-23T19:00:52.036Z,99520.00
2023-04-23T19:03:26.946Z,99501.00
2023-04-23T19:05:55.265Z,99510.00
2023-04-23T19:08:28.273Z,99510.00
2023-04-23T19:10:56.054Z,99505.00
2023-04-23T19:13:23.852Z,99509.00
2023-04-23T19:15:53.111Z,99510.00
2023-04-23T19:18:21.078Z,99502.00
2023-04-23T19:20:48.837Z,99504.00
2023-04-23T19:23:16.810Z,99509.00
2023-04-23T19:25:44.605Z,99509.00
2023-04-23T19:28:12.434Z,99502.00
2023-04-23T19:30:40.231Z,99512.00
2023-04-23T19:33:09.428Z,99509.00
2023-04-23T19:35:40.042Z,99491.00
2023-04-23T19:38:08.293Z,99492.00
2023-04-23T19:40:36.151Z,99489.00
2023-04-23T19:43:04.148Z,99487.00
2023-04-23T19:45:32.401Z,99499.00
2023-04-23T19:48:01.041Z,99495.00
2023-04-23T19:50:30.566Z,99499.00
2023-04-23T19:52:58.780Z,99481.00
2023-04-23T19:55:27.354Z,99486.00
2023-04-23T19:57:55.784Z,99478.00
2023-04-23T20:00:24.179Z,99475.00
2023-04-23T20:02:52.754Z,99477.00
2023-04-23T20:05:21.973Z,99465.00
2023-04-23T20:07:51.316Z,99462.00
2023-04-23T20:10:19.437Z,99459.00
2023-04-23T20:12:48.098Z,99462.00
2023-04-23T20:15:16.179Z,99456.00
2023-04-23T20:17:43.939Z,99454.00
2023-04-23T20:20:13.159Z,99439.00
2023-04-23T20:22:43.619Z,99422.00
2023-04-23T20:25:13.438Z,99423.00
2023-04-23T20:27:41.383Z,99424.00
2023-04-23T20:30:11.950Z,99418.00
2023-04-23T20:32:39.699Z,99424.00
2023-04-23T20:35:09.311Z,99421.00
2023-04-23T20:37:37.131Z,99419.00
2023-04-23T20:40:08.145Z,99426.00
2023-04-23T20:42:39.358Z,99419.00
2023-04-23T20:45:09.439Z,99425.00
2023-04-23T20:47:37.221Z,99419.00
2023-04-23T20:50:06.371Z,99397.00
2023-04-23T20:52:34.226Z,99393.00
2023-04-23T20:55:02.095Z,99388.00
2023-04-23T20:57:33.576Z,99367.00
2023-04-23T21:00:04.423Z,99378.00
2023-04-23T21:02:32.507Z,99385.00
2023-04-23T21:05:00.755Z,99377.00
2023-04-23T21:07:28.644Z,99380.00
2023-04-23T21:09:56.953Z,99378.00
2023-04-23T21:12:24.815Z,99385.00
2023-04-23T21:14:52.604Z,99380.00
2023-04-23T21:17:21.788Z,99398.00
2023-04-23T21:19:49.547Z,99418.00
2023-04-23T21:22:18.104Z,99417.00
2023-04-23T21:24:45.904Z,99423.00
2023-04-23T21:27:21.329Z,99429.00
2023-04-23T21:29:49.374Z,99441.00
2023-04-23T21:32:17.465Z,99440.00
2023-04-23T21:34:46.650Z,99438.00
2023-04-23T21:37:14.390Z,99428.00
2023-04-23T21:39:42.340Z,99423.00
2023-04-23T21:42:10.372Z,99428.00
2023-04-23T21:44:38.297Z,99422.00
2023-04-23T21:47:07.027Z,99420.00
2023-04-23T21:49:34.919Z,99429.00
2023-04-23T21:52:04.095Z,99420.00
2023-04-23T21:54:31.876Z,99414.00
2023-04-23T21:56:59.679Z,99421.00
2023-04-23T21:59:27.463Z,99422.00
2023-04-23T22:01:55.378Z,99414.00
2023-04-23T22:04:23.192Z,99414.00
2023-04-23T22:06:51.213Z,99414.00
2023-04-23T22:09:20.436Z,99411.00
2023-04-23T22:12:01.224Z,99409.00
2023-04-23T22:14:29.906Z,99397.00
2023-04-23T22:16:58.667Z,99394.00
2023-04-23T22:19:26.778Z,99398.00
2023-04-23T22:21:55.163Z,99385.00
2023-04-23T22:24:24.819Z,99392.00
2023-04-23T22:26:52.644Z,99398.00
2023-04-23T22:29:20.436Z,99389.00
2023-04-23T22:31:48.320Z,99391.00
2023-04-23T22:34:16.173Z,99389.00
2023-04-23T22:36:44.004Z,99388.00
2023-04-23T22:39:12.508Z,99377.00
2023-04-23T22:41:41.579Z,99379.00
2023-04-23T22:44:09.577Z,99374.00
2023-04-23T22:46:37.353Z,99375.00
2023-04-23T22:49:08.057Z,99373.00
2023-04-23T22:51:38.789Z,99382.00
2023-04-23T22:54:06.642Z,99375.00
2023-04-23T22:56:34.433Z,99371.00
2023-04-23T22:59:04.948Z,99362.00
2023-04-23T23:01:32.776Z,99367.00
2023-04-23T23:04:00.804Z,99364.00
2023-04-23T23:06:28.572Z,99360.00
2023-04-23T23:08:56.437Z,99363.00
2023-04-23T23:11:24.282Z,99365.00
2023-04-23T23:13:52.802Z,99364.00
2023-04-23T23:16:22.084Z,99365.00
2023-04-23T23:18:50.052Z,99359.00
2023-04-23T23:21:18.329Z,99360.00
2023-04-23T23:23:46.054Z,99364.00
2023-04-23T23:26:13.774Z,99367.00
2023-04-23T23:28:41.529Z,99355.00
2023-04-23T23:31:09.826Z,99356.00
2023-04-23T23:33:39.602Z,99362.00
2023-04-23T23:36:08.714Z,99351.00
2023-04-23T23:38:36.444Z,99355.00
2023-04-23T23:41:04.385Z,99354.00
2023-04-23T23:43:32.140Z,99354.00
2023-04-23T23:45:59.937Z,99353.00
2023-04-23T23:48:27.876Z,99353.00
2023-04-23T23:50:58.511Z,99349.00
2023-04-23T23:53:26.593Z,99349.00
2023-04-23T23:55:54.289Z,99349.00
2023-04-23T23:58:22.042Z,99357.00
